Time;durP1;ratioP1;P1;durP2;ratioP2;P2;SDS_P1;SDS_P2;PMS_P1;PMS_P2;Temp;Humidity;BMP_temperature;BMP_pressure;BME280_temperature;BME280_humidity;BME280_pressure;Samples;Min_cycle;Max_cycle;Signal;HPM_P1;HPM_P2
2023/12/28 00:01:26;;;;;;;5.80;5.20;;;8.20;99.90;;;;;;5073407;28;20290;-64
2023/12/28 00:03:52;;;;;;;7.77;5.70;;;8.10;99.90;;;;;;5055040;28;20576;-63
2023/12/28 00:06:17;;;;;;;5.50;5.03;;;8.10;99.90;;;;;;5054743;28;20284;-63
2023/12/28 00:08:43;;;;;;;5.20;4.80;;;8.10;99.90;;;;;;5073687;28;20276;-65
2023/12/28 00:11:09;;;;;;;5.70;5.20;;;8.10;99.90;;;;;;5055048;28;20212;-64
2023/12/28 00:13:36;;;;;;;5.60;5.10;;;8.10;99.90;;;;;;5073101;28;20181;-63
2023/12/28 00:16:02;;;;;;;6.03;5.43;;;8.10;99.90;;;;;;5073215;28;20665;-65
2023/12/28 00:18:28;;;;;;;5.77;4.90;;;8.00;99.90;;;;;;5073200;28;20204;-64
2023/12/28 00:20:53;;;;;;;6.83;5.30;;;8.00;99.90;;;;;;5072951;28;20256;-63
2023/12/28 00:23:22;;;;;;;8.53;5.53;;;7.90;99.90;;;;;;5073065;28;20202;-64
2023/12/28 00:25:48;;;;;;;6.93;5.30;;;7.80;99.90;;;;;;5073373;28;20269;-63
2023/12/28 00:28:14;;;;;;;5.93;5.33;;;7.80;99.90;;;;;;5072989;28;20209;-64
2023/12/28 00:30:39;;;;;;;7.50;5.07;;;7.80;99.90;;;;;;5073090;28;20209;-64
2023/12/28 00:33:05;;;;;;;5.70;5.20;;;7.70;99.90;;;;;;5073327;28;20240;-64
2023/12/28 00:35:31;;;;;;;5.97;5.23;;;7.70;99.90;;;;;;5073236;28;20189;-65
2023/12/28 00:37:57;;;;;;;5.30;4.80;;;7.70;99.90;;;;;;5072764;28;20181;-65
2023/12/28 00:40:22;;;;;;;5.57;5.17;;;7.70;99.90;;;;;;5073113;28;20205;-63
2023/12/28 00:42:48;;;;;;;6.20;5.20;;;7.70;99.90;;;;;;5073090;28;20666;-63
2023/12/28 00:45:14;;;;;;;6.00;5.40;;;7.60;99.90;;;;;;5072951;28;20214;-63
2023/12/28 00:47:42;;;;;;;6.87;5.63;;;7.60;99.90;;;;;;5073571;28;20176;-64
2023/12/28 00:50:11;;;;;;;6.83;5.50;;;7.60;99.90;;;;;;5054904;28;20209;-64
2023/12/28 00:52:37;;;;;;;6.43;5.77;;;7.60;99.90;;;;;;5054692;28;20185;-64
2023/12/28 00:55:04;;;;;;;5.80;5.27;;;7.60;99.90;;;;;;5072850;28;20178;-65
2023/12/28 00:57:30;;;;;;;6.13;5.53;;;7.60;99.90;;;;;;5073376;28;20178;-64
2023/12/28 00:59:56;;;;;;;5.60;5.10;;;7.60;99.90;;;;;;5073176;28;20293;-64
2023/12/28 01:02:21;;;;;;;6.17;5.57;;;7.60;99.90;;;;;;5072635;28;20196;-64
2023/12/28 01:04:47;;;;;;;5.80;5.30;;;7.60;99.90;;;;;;5072714;28;20228;-65
2023/12/28 01:07:13;;;;;;;9.13;5.40;;;7.60;99.90;;;;;;5072539;28;20212;-64
2023/12/28 01:09:39;;;;;;;6.23;5.63;;;7.70;99.90;;;;;;5073265;28;20267;-64
2023/12/28 01:12:05;;;;;;;6.93;5.67;;;7.60;99.90;;;;;;5072746;28;20197;-64
2023/12/28 01:14:31;;;;;;;6.87;6.17;;;7.70;99.90;;;;;;5072664;28;20714;-64
2023/12/28 01:16:56;;;;;;;9.27;5.87;;;7.70;99.90;;;;;;5072854;28;20280;-63
2023/12/28 01:19:23;;;;;;;6.53;5.70;;;7.70;99.90;;;;;;5073128;28;20651;-64
2023/12/28 01:21:49;;;;;;;6.13;5.53;;;7.70;99.90;;;;;;5072663;28;20639;-64
2023/12/28 01:24:15;;;;;;;8.47;5.27;;;7.70;99.90;;;;;;5072519;28;20206;-65
2023/12/28 01:26:41;;;;;;;7.27;5.73;;;7.80;99.90;;;;;;5072630;28;20235;-65
2023/12/28 01:29:07;;;;;;;5.67;5.13;;;7.90;99.90;;;;;;5072528;28;20280;-64
2023/12/28 01:31:33;;;;;;;5.60;5.13;;;7.90;99.90;;;;;;5072487;28;20186;-64
2023/12/28 01:33:58;;;;;;;6.03;5.43;;;7.90;99.90;;;;;;5072484;28;20182;-64
2023/12/28 01:36:25;;;;;;;6.77;5.40;;;7.90;99.90;;;;;;5072198;28;20553;-65
2023/12/28 01:38:51;;;;;;;5.80;5.13;;;7.90;99.90;;;;;;5075573;28;20165;-64
2023/12/28 01:41:17;;;;;;;5.77;5.27;;;7.90;99.90;;;;;;5076005;28;20205;-64
2023/12/28 01:43:43;;;;;;;5.37;4.93;;;7.90;99.90;;;;;;5057854;28;20214;-65
2023/12/28 01:46:15;;;;;;;6.77;5.13;;;7.90;99.90;;;;;;5076030;28;20216;-64
2023/12/28 01:48:44;;;;;;;5.30;4.80;;;8.00;99.90;;;;;;5075965;28;20171;-65
2023/12/28 01:51:10;;;;;;;8.50;5.57;;;8.10;99.90;;;;;;5075929;28;20209;-64
2023/12/28 01:53:37;;;;;;;6.03;5.40;;;8.10;99.90;;;;;;5076172;28;20589;-63
2023/12/28 01:56:03;;;;;;;7.13;5.57;;;8.20;99.90;;;;;;5075804;28;20186;-65
2023/12/28 01:58:32;;;;;;;6.23;5.33;;;8.20;99.90;;;;;;5075810;28;20185;-65
2023/12/28 02:00:58;;;;;;;5.87;5.30;;;8.20;99.90;;;;;;5075631;28;20210;-65
2023/12/28 02:03:24;;;;;;;5.93;5.37;;;8.20;99.90;;;;;;5057666;28;20594;-64
2023/12/28 02:05:52;;;;;;;6.30;5.70;;;8.20;99.90;;;;;;5075564;28;20215;-65
2023/12/28 02:08:17;;;;;;;5.50;5.00;;;8.20;99.90;;;;;;5076187;28;20204;-65
2023/12/28 02:10:43;;;;;;;6.10;5.10;;;8.30;99.90;;;;;;5059529;28;20206;-64
2023/12/28 02:13:10;;;;;;;5.43;4.90;;;8.30;99.90;;;;;;5075838;28;20196;-64
2023/12/28 02:15:35;;;;;;;5.33;4.87;;;8.30;99.90;;;;;;5075453;28;20205;-64
2023/12/28 02:18:09;;;;;;;5.83;5.23;;;8.30;99.90;;;;;;5075399;28;20178;-65
2023/12/28 02:20:35;;;;;;;6.73;5.30;;;8.30;99.90;;;;;;5075295;28;20205;-65
2023/12/28 02:23:02;;;;;;;5.90;5.40;;;8.30;99.90;;;;;;5074987;28;20283;-63
2023/12/28 02:25:28;;;;;;;4.80;4.40;;;8.30;99.90;;;;;;5075228;28;20185;-64
2023/12/28 02:27:54;;;;;;;5.57;4.90;;;8.40;99.90;;;;;;5075154;28;20239;-65
2023/12/28 02:30:22;;;;;;;7.10;5.30;;;8.40;99.90;;;;;;5075103;28;20613;-64
2023/12/28 02:33:01;;;;;;;5.20;4.70;;;8.40;99.90;;;;;;5075466;28;20173;-64
2023/12/28 02:35:34;;;;;;;7.30;5.40;;;8.50;99.90;;;;;;5057169;28;20209;-66
2023/12/28 02:38:06;;;;;;;6.33;4.80;;;8.50;99.90;;;;;;5075184;28;20162;-64
2023/12/28 02:40:39;;;;;;;5.73;5.20;;;8.50;99.90;;;;;;5075036;28;20194;-65
2023/12/28 02:43:06;;;;;;;8.43;5.10;;;8.50;99.90;;;;;;5075282;28;20201;-64
2023/12/28 02:45:32;;;;;;;5.87;4.67;;;8.60;99.90;;;;;;5075094;28;20190;-63
2023/12/28 02:47:58;;;;;;;8.33;5.07;;;8.70;99.90;;;;;;5075286;28;20239;-64
2023/12/28 02:50:24;;;;;;;7.00;4.90;;;8.70;99.90;;;;;;5073867;28;20202;-65
2023/12/28 02:52:49;;;;;;;5.67;5.17;;;8.70;99.90;;;;;;5074451;28;20261;-64
2023/12/28 02:55:15;;;;;;;6.17;4.90;;;8.70;99.90;;;;;;5074952;28;20260;-63
2023/12/28 02:57:41;;;;;;;4.70;4.40;;;8.70;99.90;;;;;;5074942;28;20184;-64
2023/12/28 03:00:10;;;;;;;5.10;4.60;;;8.70;99.90;;;;;;5056599;28;20686;-65
2023/12/28 03:02:39;;;;;;;4.90;4.50;;;8.70;99.90;;;;;;5074529;28;20257;-65
2023/12/28 03:05:05;;;;;;;5.57;4.97;;;8.70;99.90;;;;;;5074412;28;20186;-63
2023/12/28 03:07:32;;;;;;;5.13;4.70;;;8.80;99.90;;;;;;5056168;28;20235;-65
2023/12/28 03:09:58;;;;;;;5.40;4.90;;;8.80;99.90;;;;;;5074276;28;20731;-65
2023/12/28 03:12:24;;;;;;;6.70;4.90;;;8.80;99.90;;;;;;5074225;28;20201;-65
2023/12/28 03:14:50;;;;;;;5.03;4.63;;;8.80;99.90;;;;;;5074290;28;20213;-64
2023/12/28 03:17:16;;;;;;;4.97;4.47;;;8.80;99.90;;;;;;5074319;28;20702;-64
2023/12/28 03:19:41;;;;;;;5.30;4.80;;;8.80;99.90;;;;;;5056289;28;20206;-64
2023/12/28 03:22:07;;;;;;;5.10;4.70;;;8.90;99.90;;;;;;5074320;28;20590;-65
2023/12/28 03:24:33;;;;;;;5.77;4.90;;;8.90;99.90;;;;;;5056026;28;20293;-64
2023/12/28 03:26:59;;;;;;;5.20;4.80;;;8.90;99.90;;;;;;5073967;28;20180;-65
2023/12/28 03:29:25;;;;;;;5.33;4.83;;;9.00;99.90;;;;;;5074480;28;20573;-65
2023/12/28 03:31:51;;;;;;;6.37;5.37;;;9.00;99.90;;;;;;5073962;28;20182;-64
2023/12/28 03:34:17;;;;;;;7.27;4.40;;;9.10;99.90;;;;;;5074444;28;20598;-65
2023/12/28 03:36:43;;;;;;;4.90;4.50;;;9.10;99.90;;;;;;5073597;28;20588;-64
2023/12/28 03:39:08;;;;;;;5.17;4.70;;;9.10;99.90;;;;;;5073745;28;20224;-64
2023/12/28 03:41:34;;;;;;;5.50;4.50;;;9.10;99.90;;;;;;5073705;28;20182;-64
2023/12/28 03:44:00;;;;;;;6.83;4.73;;;9.10;99.90;;;;;;5073666;28;20302;-63
2023/12/28 03:46:26;;;;;;;4.77;4.37;;;9.10;99.90;;;;;;5073874;28;20174;-64
2023/12/28 03:48:53;;;;;;;5.00;4.60;;;9.10;99.90;;;;;;5073601;28;20181;-64
2023/12/28 03:51:19;;;;;;;4.63;4.07;;;9.10;99.90;;;;;;5073936;28;20208;-64
2023/12/28 03:53:45;;;;;;;4.60;4.20;;;9.10;99.90;;;;;;5073181;28;20186;-64
2023/12/28 03:56:24;;;;;;;4.77;4.37;;;9.10;99.90;;;;;;5073501;28;20178;-64
2023/12/28 03:58:50;;;;;;;4.73;4.37;;;9.10;99.90;;;;;;5073946;28;20181;-64
2023/12/28 04:01:18;;;;;;;5.93;4.20;;;9.10;99.90;;;;;;5073774;28;20193;-64
2023/12/28 04:03:43;;;;;;;4.60;4.20;;;9.10;99.90;;;;;;5073373;28;20288;-64
2023/12/28 04:06:09;;;;;;;4.30;4.00;;;9.10;99.90;;;;;;5055372;28;20220;-64
2023/12/28 04:08:35;;;;;;;4.50;4.20;;;9.10;99.90;;;;;;5073158;28;20173;-65
2023/12/28 04:11:01;;;;;;;4.63;4.30;;;9.10;99.90;;;;;;5073155;28;20189;-65
2023/12/28 04:13:26;;;;;;;5.00;4.57;;;9.10;99.90;;;;;;5073332;28;20541;-64
2023/12/28 04:15:52;;;;;;;4.77;4.23;;;9.10;99.90;;;;;;5073156;28;20197;-64
2023/12/28 04:18:18;;;;;;;4.80;4.40;;;9.20;99.90;;;;;;5073188;28;20186;-65
2023/12/28 04:20:46;;;;;;;6.27;4.73;;;9.20;99.90;;;;;;5073327;28;20281;-65
2023/12/28 04:23:12;;;;;;;4.60;4.20;;;9.10;99.90;;;;;;5073051;28;20231;-64
2023/12/28 04:25:38;;;;;;;4.83;4.43;;;9.10;99.90;;;;;;5073447;28;20174;-64
2023/12/28 04:28:04;;;;;;;4.60;4.30;;;9.10;99.90;;;;;;5073609;28;20235;-64
2023/12/28 04:30:30;;;;;;;4.40;4.10;;;9.10;99.90;;;;;;5055141;28;20291;-64
2023/12/28 04:32:55;;;;;;;4.67;4.20;;;9.10;99.90;;;;;;5073302;28;20650;-65
2023/12/28 04:35:21;;;;;;;5.23;4.50;;;9.10;99.90;;;;;;5073358;28;20182;-63
2023/12/28 04:37:47;;;;;;;4.90;4.60;;;9.00;99.90;;;;;;5072819;28;20639;-64
2023/12/28 04:40:14;;;;;;;4.70;4.40;;;9.00;99.90;;;;;;5073211;28;20570;-65
2023/12/28 04:42:40;;;;;;;4.97;4.50;;;9.00;99.90;;;;;;5073573;28;20170;-64
2023/12/28 04:45:07;;;;;;;4.83;4.40;;;9.00;99.90;;;;;;5073770;28;20186;-65
2023/12/28 04:47:33;;;;;;;4.80;4.40;;;8.90;99.90;;;;;;5055693;28;20213;-65
2023/12/28 04:49:59;;;;;;;4.97;3.90;;;8.90;99.90;;;;;;5072986;28;20716;-65
2023/12/28 04:52:24;;;;;;;4.90;4.53;;;8.80;99.90;;;;;;5072691;28;20579;-64
2023/12/28 04:54:50;;;;;;;6.27;4.50;;;8.80;99.90;;;;;;5073230;28;20178;-64
2023/12/28 04:57:16;;;;;;;4.60;4.30;;;8.90;99.90;;;;;;5073489;28;20185;-63
2023/12/28 04:59:42;;;;;;;4.97;4.47;;;8.80;99.90;;;;;;5072808;28;20190;-65
2023/12/28 05:02:08;;;;;;;4.97;4.57;;;8.90;99.90;;;;;;5072807;28;20181;-65
2023/12/28 05:04:38;;;;;;;5.90;4.50;;;8.90;99.90;;;;;;5072816;28;20574;-64
2023/12/28 05:07:04;;;;;;;4.97;4.57;;;8.90;99.90;;;;;;5054800;28;20609;-65
2023/12/28 05:09:31;;;;;;;4.53;4.10;;;8.90;99.90;;;;;;5072909;28;20276;-65
2023/12/28 05:11:56;;;;;;;5.20;4.70;;;8.90;99.90;;;;;;5072894;28;20647;-64
2023/12/28 05:14:22;;;;;;;5.37;4.87;;;8.90;99.90;;;;;;5076878;28;20193;-65
2023/12/28 05:16:48;;;;;;;5.40;5.00;;;8.90;99.90;;;;;;5076738;28;20188;-64
2023/12/28 05:19:14;;;;;;;4.77;4.37;;;8.90;99.90;;;;;;5068300;28;20174;-64
2023/12/28 05:21:40;;;;;;;5.40;4.90;;;9.00;99.90;;;;;;5076509;28;20231;-64
2023/12/28 05:24:06;;;;;;;4.63;4.33;;;9.00;99.90;;;;;;5076341;28;20205;-65
2023/12/28 05:26:31;;;;;;;4.90;4.50;;;9.00;99.90;;;;;;5076681;28;20678;-65
2023/12/28 05:28:57;;;;;;;4.73;4.27;;;9.00;99.90;;;;;;5058378;28;20651;-66
2023/12/28 05:31:23;;;;;;;4.70;4.30;;;9.00;99.90;;;;;;5076456;28;20240;-64
2023/12/28 05:33:49;;;;;;;5.90;4.50;;;9.00;99.90;;;;;;5058435;28;20178;-64
2023/12/28 05:36:14;;;;;;;4.73;4.40;;;9.10;99.90;;;;;;5058191;28;20190;-65
2023/12/28 05:38:40;;;;;;;5.67;4.70;;;9.10;99.90;;;;;;5075929;28;20658;-64
2023/12/28 05:41:06;;;;;;;4.77;4.30;;;9.10;99.90;;;;;;5075960;28;20202;-65
2023/12/28 05:43:32;;;;;;;6.30;4.40;;;9.10;99.90;;;;;;5075859;28;20194;-64
2023/12/28 05:45:58;;;;;;;4.97;4.53;;;9.10;99.90;;;;;;5075998;28;20178;-64
2023/12/28 05:48:23;;;;;;;6.00;4.73;;;9.10;99.90;;;;;;5058066;28;20589;-64
2023/12/28 05:50:49;;;;;;;4.60;4.28;;;9.10;99.90;;;;;;5076344;28;20193;-64
2023/12/28 05:53:15;;;;;;;5.00;4.50;;;9.10;99.90;;;;;;5057732;28;20247;-65
2023/12/28 05:55:41;;;;;;;4.80;4.40;;;9.10;99.90;;;;;;5075914;28;20243;-65
2023/12/28 05:58:07;;;;;;;5.30;4.77;;;9.10;99.90;;;;;;5076079;28;20276;-64
2023/12/28 06:00:32;;;;;;;5.50;4.30;;;9.10;99.90;;;;;;5075637;28;20257;-65
2023/12/28 06:02:58;;;;;;;8.37;4.60;;;9.10;99.90;;;;;;5075632;28;20544;-64
2023/12/28 06:05:24;;;;;;;7.03;4.60;;;9.10;99.90;;;;;;5076043;28;20174;-65
2023/12/28 06:07:50;;;;;;;8.17;4.40;;;9.10;99.90;;;;;;5057418;28;20206;-65
2023/12/28 06:10:15;;;;;;;5.73;4.20;;;9.10;99.90;;;;;;5075621;28;20194;-65
2023/12/28 06:12:41;;;;;;;5.00;4.60;;;9.10;99.90;;;;;;5075649;28;20253;-65
2023/12/28 06:15:07;;;;;;;6.33;4.73;;;9.10;99.90;;;;;;5075643;28;20193;-65
2023/12/28 06:17:33;;;;;;;6.67;4.40;;;9.10;99.90;;;;;;5075510;28;20182;-64
2023/12/28 06:19:59;;;;;;;6.33;4.73;;;9.10;99.90;;;;;;5057490;28;20244;-65
2023/12/28 06:22:27;;;;;;;5.40;4.13;;;9.10;99.90;;;;;;5075176;28;20213;-64
2023/12/28 06:24:56;;;;;;;8.80;4.70;;;9.10;99.90;;;;;;5057329;28;20214;-65
2023/12/28 06:27:23;;;;;;;6.20;4.87;;;9.10;99.90;;;;;;5075366;28;20260;-65
2023/12/28 06:29:49;;;;;;;4.63;4.23;;;9.10;99.90;;;;;;5075208;28;20193;-65
2023/12/28 06:32:15;;;;;;;4.60;4.20;;;9.10;99.90;;;;;;5075184;28;20238;-65
2023/12/28 06:34:41;;;;;;;4.60;4.20;;;9.10;99.90;;;;;;5075745;28;20190;-65
2023/12/28 06:37:06;;;;;;;5.53;4.70;;;9.10;99.90;;;;;;5075001;28;20182;-65
2023/12/28 06:39:32;;;;;;;5.17;4.67;;;9.10;99.90;;;;;;5075118;28;20279;-65
2023/12/28 06:41:58;;;;;;;7.33;5.10;;;9.00;99.90;;;;;;5075093;28;20181;-64
2023/12/28 06:44:24;;;;;;;4.60;4.30;;;9.00;99.90;;;;;;5074817;28;20694;-65
2023/12/28 06:46:50;;;;;;;6.23;4.53;;;9.00;99.90;;;;;;5074904;28;20165;-64
2023/12/28 06:49:15;;;;;;;6.67;4.60;;;9.00;99.90;;;;;;5074847;28;20178;-63
2023/12/28 06:51:43;;;;;;;5.23;4.47;;;9.00;99.90;;;;;;5074776;28;20182;-65
2023/12/28 06:54:09;;;;;;;6.00;4.97;;;9.00;99.90;;;;;;5074485;28;20213;-65
2023/12/28 06:56:35;;;;;;;5.07;4.33;;;9.00;99.90;;;;;;5056732;28;20213;-63
2023/12/28 06:59:01;;;;;;;6.13;4.50;;;9.00;99.90;;;;;;5074853;28;20231;-64
2023/12/28 07:01:26;;;;;;;6.73;4.63;;;9.00;99.90;;;;;;5075578;28;20224;-64
2023/12/28 07:03:52;;;;;;;5.73;4.57;;;9.00;99.90;;;;;;5074420;28;20282;-64
2023/12/28 07:06:18;;;;;;;4.97;4.47;;;9.00;99.90;;;;;;5074465;28;20193;-65
2023/12/28 07:08:44;;;;;;;5.77;4.33;;;9.00;99.90;;;;;;5074246;28;20208;-63
2023/12/28 07:11:11;;;;;;;5.47;4.90;;;8.90;99.90;;;;;;5074344;28;20216;-64
2023/12/28 07:13:37;;;;;;;4.90;4.40;;;8.90;99.90;;;;;;5074829;28;20163;-65
2023/12/28 07:16:03;;;;;;;4.50;4.20;;;8.90;99.90;;;;;;5074354;28;20253;-65
2023/12/28 07:18:29;;;;;;;4.57;4.17;;;8.90;99.90;;;;;;5074357;28;20190;-64
2023/12/28 07:20:55;;;;;;;5.03;4.47;;;8.90;99.90;;;;;;5074750;28;20220;-64
2023/12/28 07:23:20;;;;;;;5.73;4.80;;;8.90;99.90;;;;;;5073952;28;20213;-63
2023/12/28 07:25:46;;;;;;;5.00;4.60;;;8.80;99.90;;;;;;5056243;28;20182;-64
2023/12/28 07:28:12;;;;;;;5.60;4.87;;;8.90;99.90;;;;;;5074396;28;20623;-65
2023/12/28 07:30:38;;;;;;;5.70;4.73;;;8.90;99.90;;;;;;5056250;28;20213;-65
2023/12/28 07:33:04;;;;;;;4.53;4.13;;;8.90;99.90;;;;;;5056002;28;20177;-64
2023/12/28 07:35:30;;;;;;;6.93;4.60;;;8.80;99.90;;;;;;5073368;28;20206;-65
2023/12/28 07:37:55;;;;;;;6.37;4.47;;;8.80;99.90;;;;;;5073657;28;20777;-65
2023/12/28 07:40:21;;;;;;;5.80;4.60;;;8.80;99.90;;;;;;5073706;28;20566;-64
2023/12/28 07:42:47;;;;;;;7.53;5.10;;;8.80;99.90;;;;;;5073660;28;20262;-65
2023/12/28 07:45:13;;;;;;;5.90;4.63;;;8.80;99.90;;;;;;5073706;28;20666;-65
2023/12/28 07:47:39;;;;;;;6.23;4.80;;;8.70;99.90;;;;;;5073928;28;20185;-64
2023/12/28 07:50:05;;;;;;;9.63;4.80;;;8.70;99.90;;;;;;5073564;28;20682;-64
2023/12/28 07:52:31;;;;;;;6.17;4.77;;;8.70;99.90;;;;;;5073302;28;20186;-63
2023/12/28 07:54:56;;;;;;;6.90;4.70;;;8.70;99.90;;;;;;5073661;28;20720;-65
2023/12/28 07:57:22;;;;;;;5.03;4.20;;;8.80;99.90;;;;;;5073639;28;20219;-65
2023/12/28 07:59:48;;;;;;;6.90;4.60;;;8.80;99.90;;;;;;5055660;28;20202;-65
2023/12/28 08:02:14;;;;;;;10.47;4.93;;;8.80;99.90;;;;;;5073770;28;20192;-65
2023/12/28 08:04:39;;;;;;;5.60;5.00;;;8.80;99.90;;;;;;5073380;28;20233;-64
2023/12/28 08:07:07;;;;;;;5.13;4.40;;;8.80;99.90;;;;;;5055343;28;20754;-65
2023/12/28 08:09:32;;;;;;;6.03;4.77;;;8.70;99.90;;;;;;5072983;28;20200;-64
2023/12/28 08:11:58;;;;;;;6.07;4.80;;;8.80;99.90;;;;;;5073804;28;20245;-65
2023/12/28 08:14:24;;;;;;;8.23;4.87;;;8.80;99.90;;;;;;5073576;28;20181;-68
2023/12/28 08:16:50;;;;;;;6.13;4.93;;;8.80;99.90;;;;;;5073406;28;20654;-65
2023/12/28 08:19:15;;;;;;;6.10;4.70;;;8.80;99.90;;;;;;5073687;28;20173;-65
2023/12/28 08:21:41;;;;;;;8.03;4.70;;;8.90;99.90;;;;;;5073477;28;20189;-66
2023/12/28 08:24:07;;;;;;;5.40;4.93;;;8.90;99.90;;;;;;5072957;28;20609;-65
2023/12/28 08:26:33;;;;;;;7.43;4.53;;;8.90;99.90;;;;;;5073407;28;20253;-65
2023/12/28 08:28:59;;;;;;;7.87;4.80;;;8.90;99.90;;;;;;5055046;28;20192;-65
2023/12/28 08:31:25;;;;;;;6.60;4.90;;;8.90;99.90;;;;;;5073259;28;20206;-66
2023/12/28 08:33:50;;;;;;;7.33;4.90;;;8.90;99.90;;;;;;5073107;28;20659;-65
2023/12/28 08:36:17;;;;;;;5.83;4.60;;;8.90;99.90;;;;;;5073048;28;20678;-64
2023/12/28 08:38:44;;;;;;;5.60;4.50;;;9.00;99.90;;;;;;5073004;28;20200;-65
2023/12/28 08:41:23;;;;;;;5.10;4.60;;;8.90;99.90;;;;;;5072977;28;20205;-64
2023/12/28 08:43:50;;;;;;;5.20;4.63;;;8.90;99.90;;;;;;5073066;28;20287;-64
2023/12/28 08:46:16;;;;;;;6.83;4.80;;;9.00;99.90;;;;;;5072919;28;20181;-64
2023/12/28 08:48:42;;;;;;;6.30;5.07;;;9.00;99.90;;;;;;5076260;28;20164;-64
2023/12/28 08:51:10;;;;;;;4.73;4.20;;;9.10;99.90;;;;;;5077063;28;20197;-64
2023/12/28 08:53:36;;;;;;;8.27;4.90;;;9.10;99.90;;;;;;5076892;28;20182;-64
2023/12/28 08:56:02;;;;;;;6.07;4.53;;;9.20;99.90;;;;;;5077027;28;20269;-64
2023/12/28 08:58:27;;;;;;;5.43;4.50;;;9.20;99.90;;;;;;5077392;28;20189;-65
2023/12/28 09:00:53;;;;;;;4.87;4.20;;;9.20;99.90;;;;;;5059096;28;20202;-64
2023/12/28 09:03:19;;;;;;;5.50;4.40;;;9.20;99.90;;;;;;5077036;28;20193;-66
2023/12/28 09:05:45;;;;;;;5.27;4.50;;;9.20;99.90;;;;;;5076971;28;20181;-65
2023/12/28 09:08:10;;;;;;;4.87;4.37;;;9.20;99.90;;;;;;5076334;28;20686;-65
2023/12/28 09:10:36;;;;;;;6.10;4.70;;;9.20;99.90;;;;;;5076646;28;20202;-65
2023/12/28 09:13:05;;;;;;;5.50;4.70;;;9.30;99.90;;;;;;5058833;28;20182;-65
2023/12/28 09:15:31;;;;;;;9.37;5.10;;;9.30;99.90;;;;;;5076450;28;20254;-64
2023/12/28 09:17:57;;;;;;;6.73;4.80;;;9.40;99.90;;;;;;5076581;28;20554;-65
2023/12/28 09:20:23;;;;;;;6.90;4.60;;;9.40;99.90;;;;;;5076762;28;20281;-65
2023/12/28 09:22:53;;;;;;;7.53;4.60;;;9.40;99.90;;;;;;5076253;28;20271;-66
2023/12/28 09:25:19;;;;;;;9.80;4.93;;;9.40;99.90;;;;;;5076405;28;20206;-66
2023/12/28 09:27:45;;;;;;;4.93;4.53;;;9.50;99.90;;;;;;5076400;28;20189;-64
2023/12/28 09:30:11;;;;;;;7.47;4.50;;;9.50;99.90;;;;;;5076363;28;20682;-65
2023/12/28 09:32:37;;;;;;;5.68;4.53;;;9.50;99.90;;;;;;5058515;28;20273;-65
2023/12/28 09:35:03;;;;;;;9.47;4.77;;;9.50;99.90;;;;;;5058395;28;20196;-66
2023/12/28 09:37:29;;;;;;;5.10;4.60;;;9.50;99.90;;;;;;5075929;28;20216;-66
2023/12/28 09:39:55;;;;;;;6.37;4.30;;;9.60;99.90;;;;;;5076018;28;20263;-64
2023/12/28 09:42:32;;;;;;;7.03;4.57;;;9.60;99.90;;;;;;5076389;28;20190;-66
2023/12/28 09:44:57;;;;;;;5.80;4.47;;;9.60;99.90;;;;;;5058153;28;20591;-65
2023/12/28 09:47:24;;;;;;;7.43;4.60;;;9.60;99.90;;;;;;5076342;28;20212;-65
2023/12/28 09:49:50;;;;;;;8.07;4.80;;;9.60;99.90;;;;;;5058154;28;20210;-66
2023/12/28 09:52:15;;;;;;;12.37;4.50;;;9.60;99.90;;;;;;5058014;28;20197;-65
2023/12/28 09:54:41;;;;;;;10.20;4.53;;;9.70;99.90;;;;;;5075630;28;20669;-65
2023/12/28 09:57:08;;;;;;;8.03;4.53;;;9.70;99.90;;;;;;5057998;28;20742;-65
2023/12/28 09:59:35;;;;;;;5.35;4.63;;;9.70;99.90;;;;;;5075095;28;20289;-64
2023/12/28 10:02:03;;;;;;;6.47;4.55;;;9.80;99.90;;;;;;5075709;28;20189;-65
2023/12/28 10:04:29;;;;;;;7.07;4.50;;;9.80;99.90;;;;;;5075656;28;20212;-66
2023/12/28 10:06:55;;;;;;;5.30;4.15;;;9.90;99.90;;;;;;5075914;28;20232;-64
2023/12/28 10:09:21;;;;;;;4.87;4.47;;;9.90;99.90;;;;;;5075481;28;20185;-64
2023/12/28 10:11:47;;;;;;;7.30;4.80;;;9.90;99.90;;;;;;5075759;28;20182;-64
2023/12/28 10:14:13;;;;;;;9.15;4.57;;;9.90;99.90;;;;;;5075971;28;20232;-66
2023/12/28 10:16:42;;;;;;;8.30;4.22;;;10.00;99.90;;;;;;5075443;28;20269;-66
2023/12/28 10:19:09;;;;;;;4.93;4.43;;;10.00;99.90;;;;;;5075316;28;20799;-64
2023/12/28 10:21:34;;;;;;;9.27;5.00;;;10.10;99.90;;;;;;5075727;28;20231;-65
2023/12/28 10:24:02;;;;;;;4.90;4.35;;;10.10;99.90;;;;;;5075070;28;20201;-66
2023/12/28 10:26:28;;;;;;;6.15;4.43;;;10.20;99.90;;;;;;5075446;28;20260;-66
2023/12/28 10:29:00;;;;;;;9.93;4.30;;;10.20;99.90;;;;;;5075674;28;20615;-66
2023/12/28 10:31:26;;;;;;;8.75;4.40;;;10.20;99.90;;;;;;5075439;28;20202;-66
2023/12/28 10:33:52;;;;;;;13.18;5.18;;;10.20;99.90;;;;;;5075739;28;20273;-66
2023/12/28 10:36:21;;;;;;;7.25;4.97;;;10.20;99.90;;;;;;5076080;28;20245;-64
2023/12/28 10:38:50;;;;;;;11.60;4.85;;;10.30;99.90;;;;;;5075733;28;20192;-66
2023/12/28 10:41:17;;;;;;;14.43;5.35;;;10.30;99.90;;;;;;5076230;28;20255;-66
2023/12/28 10:44:04;;;;;;;5.68;4.38;;;10.30;99.90;;;;;;5077694;28;20205;-65
2023/12/28 10:46:37;;;;;;;8.13;5.07;;;10.30;99.90;;;;;;5076313;28;20176;-65
2023/12/28 10:49:15;;;;;;;9.63;4.95;;;10.40;99.90;;;;;;5075358;28;20155;-65
2023/12/28 10:51:51;;;;;;;5.80;4.13;;;10.40;99.90;;;;;;5075107;28;20162;-64
2023/12/28 10:54:32;;;;;;;5.75;4.20;;;10.50;99.90;;;;;;5056529;28;20178;-66
2023/12/28 10:57:32;;;;;;;8.30;4.97;;;10.60;99.90;;;;;;5075098;28;20205;-66
2023/12/28 11:00:11;;;;;;;10.75;4.68;;;10.70;99.90;;;;;;5059878;28;20216;-65
2023/12/28 11:02:51;;;;;;;6.38;4.72;;;10.70;99.90;;;;;;5057677;28;20280;-65
2023/12/28 11:05:20;;;;;;;9.85;4.07;;;10.60;99.90;;;;;;5075501;28;20189;-66
2023/12/28 11:07:49;;;;;;;9.35;4.60;;;10.70;99.90;;;;;;5074485;28;20296;-64
2023/12/28 11:10:17;;;;;;;11.43;4.43;;;10.70;99.90;;;;;;5073650;28;20289;-65
2023/12/28 11:12:44;;;;;;;6.35;4.28;;;10.70;99.90;;;;;;5074793;28;20158;-66
2023/12/28 11:15:11;;;;;;;7.93;4.20;;;10.80;99.90;;;;;;5074633;28;20276;-66
2023/12/28 11:17:38;;;;;;;5.43;4.45;;;10.80;99.90;;;;;;5056790;28;20658;-65
2023/12/28 11:20:05;;;;;;;8.85;4.40;;;10.80;99.90;;;;;;5056698;28;20279;-66
2023/12/28 11:22:32;;;;;;;7.50;4.50;;;10.80;99.90;;;;;;5056701;28;20615;-67
2023/12/28 11:24:59;;;;;;;8.10;3.90;;;10.80;99.90;;;;;;5073848;28;20223;-66
2023/12/28 11:27:26;;;;;;;8.90;4.45;;;10.80;99.90;;;;;;5074220;28;20651;-66
2023/12/28 11:29:52;;;;;;;8.93;4.38;;;10.80;99.90;;;;;;5074452;28;20247;-65
2023/12/28 11:32:19;;;;;;;10.02;4.53;;;10.80;99.90;;;;;;5074325;28;20178;-67
2023/12/28 11:34:45;;;;;;;8.90;5.00;;;10.90;99.90;;;;;;5074615;28;20166;-66
2023/12/28 11:37:20;;;;;;;13.90;5.00;;;10.90;99.90;;;;;;5074297;28;20544;-67
2023/12/28 11:39:49;;;;;;;5.75;4.35;;;10.90;99.90;;;;;;5073561;28;20250;-66
2023/12/28 11:42:20;;;;;;;8.60;4.22;;;11.00;99.90;;;;;;5056010;28;20194;-65
2023/12/28 11:44:46;;;;;;;8.77;4.35;;;11.00;99.90;;;;;;5073850;28;20667;-66
2023/12/28 11:47:21;;;;;;;8.93;4.38;;;11.20;99.90;;;;;;5055726;28;20182;-66
2023/12/28 11:49:48;;;;;;;10.82;4.35;;;11.30;99.90;;;;;;5055848;28;20202;-67
2023/12/28 11:52:29;;;;;;;9.90;4.25;;;11.20;99.90;;;;;;5073542;28;20576;-66
2023/12/28 11:54:55;;;;;;;5.88;4.07;;;11.20;99.90;;;;;;5055333;28;20220;-65
2023/12/28 11:57:22;;;;;;;6.75;3.90;;;11.10;99.90;;;;;;5073804;28;20264;-66
2023/12/28 11:59:53;;;;;;;10.52;4.47;;;11.10;99.90;;;;;;5073475;28;20339;-66
2023/12/28 12:02:19;;;;;;;10.00;4.30;;;11.00;99.90;;;;;;5074074;28;20265;-66
2023/12/28 12:04:45;;;;;;;6.68;4.10;;;11.10;99.90;;;;;;5073730;28;20193;-66
2023/12/28 12:07:11;;;;;;;7.28;4.05;;;11.20;99.90;;;;;;5073291;28;20223;-65
2023/12/28 12:09:36;;;;;;;9.07;4.18;;;11.30;99.90;;;;;;5073082;28;20230;-66
2023/12/28 12:12:03;;;;;;;7.80;4.10;;;11.50;99.90;;;;;;5073361;28;20174;-65
2023/12/28 12:14:30;;;;;;;7.82;4.50;;;11.70;99.90;;;;;;5055267;28;20273;-65
2023/12/28 12:16:59;;;;;;;9.35;4.50;;;11.80;94.00;;;;;;5073622;28;20197;-66
2023/12/28 12:19:26;;;;;;;5.13;3.67;;;11.90;91.10;;;;;;5073207;28;20173;-66
2023/12/28 12:21:52;;;;;;;11.40;4.28;;;11.90;91.30;;;;;;5073117;28;20182;-66
2023/12/28 12:24:19;;;;;;;15.20;4.75;;;12.00;93.30;;;;;;5072716;28;20209;-66
2023/12/28 12:26:52;;;;;;;13.15;4.10;;;12.00;77.00;;;;;;5073547;28;20529;-64
2023/12/28 12:29:18;;;;;;;8.60;4.68;;;12.00;79.30;;;;;;5054961;28;20567;-65
2023/12/28 12:31:46;;;;;;;10.32;4.72;;;12.00;66.10;;;;;;5073147;28;20250;-66
2023/12/28 12:34:17;;;;;;;5.47;4.30;;;12.00;79.30;;;;;;5055172;28;20268;-66
2023/12/28 12:36:44;;;;;;;8.02;4.00;;;11.90;74.10;;;;;;5073110;28;20166;-66
2023/12/28 12:39:13;;;;;;;9.52;4.55;;;11.70;67.50;;;;;;5072566;28;20182;-65
2023/12/28 12:41:39;;;;;;;9.30;4.20;;;11.60;92.00;;;;;;5072904;28;20182;-65
2023/12/28 12:44:05;;;;;;;8.55;4.65;;;11.50;61.70;;;;;;5055004;28;20584;-65
2023/12/28 12:46:32;;;;;;;7.07;3.75;;;11.40;91.10;;;;;;5073057;28;20194;-66
2023/12/28 12:48:59;;;;;;;8.48;4.85;;;11.40;95.60;;;;;;5072954;28;20639;-64
2023/12/28 12:51:28;;;;;;;10.52;4.60;;;11.40;85.70;;;;;;5072907;28;20204;-66
2023/12/28 12:54:02;;;;;;;6.70;3.80;;;11.40;99.90;;;;;;5072690;28;20181;-64